This is the latest recevied weather packets stored in our database for station/object S56IAR-13. If no packets are shown the sender has not sent any weather packets the latest 10 day(s).
| Time | Temp. | Humidity | Pressure | Rain* | Wind** | Luminosity | Snow |
|---|---|---|---|---|---|---|---|
| 1777610105 | -1.11° C | 94% | 973.4 hPa | 0 mm | - | 17 W/m² | - |
| 1777607405 | -1.67° C | 94% | 973.1 hPa | 0 mm | - | 2 W/m² | - |
| 1777607233 | -1.67° C | 94% | 973.2 hPa | 0 mm | - | 1 W/m² | - |
| 1777603803 | -1.11° C | 93% | 973.3 hPa | 0 mm | - | 0 W/m² | - |
| 1777602303 | -1.11° C | 93% | 973.4 hPa | 0 mm | - | 0 W/m² | - |
| 1777595703 | -0.56° C | 91% | 973.8 hPa | 0 mm | - | 0 W/m² | - |
| 1777592703 | 0° C | 90% | 973.7 hPa | 0 mm | - | 0 W/m² | - |
| 1777589403 | 0.56° C | 90% | 974 hPa | 0 mm | - | 0 W/m² | - |
| 1777588203 | 0.56° C | 90% | 974.1 hPa | 0 mm | - | 0 W/m² | - |
| 1777587304 | 1.11° C | 90% | 974.1 hPa | 0 mm | - | 0 W/m² | - |
| 1777584905 | 1.11° C | 90% | 974 hPa | 0 mm | - | 0 W/m² | - |
| 1777584004 | 1.67° C | 89% | 973.9 hPa | 0 mm | - | 0 W/m² | - |
| 1777580836 | 2.22° C | 88% | 973.8 hPa | 0 mm | - | 0 W/m² | - |
| 1777575904 | 3.89° C | 82% | 972.5 hPa | 0 mm | - | 0 W/m² | - |
| 1777573804 | 5° C | 78% | 972.1 hPa | 0 mm | - | 0 W/m² | - |
| 1777571405 | 6.67° C | 74% | 971.6 hPa | 0 mm | - | 9 W/m² | - |
| 1777569305 | 8.89° C | 61% | 971.2 hPa | 0 mm | - | 24 W/m² | - |
| 1777566904 | 12.22° C | 39% | 971 hPa | 0 mm | - | 36 W/m² | - |
| 1777564504 | 13.89° C | 36% | 970.9 hPa | 0 mm | - | 198 W/m² | - |
| 1777564205 | 13.89° C | 34% | 971 hPa | 0 mm | - | 212 W/m² | - |
| 1777563434 | 13.33° C | 37% | 971 hPa | 0 mm | - | 248 W/m² | - |
| 1777559705 | 14.44° C | 33% | 971 hPa | 0 mm | - | 430 W/m² | - |
| 1777558804 | 13.89° C | 36% | 971.2 hPa | 0 mm | - | 467 W/m² | - |
| 1777558205 | 13.89° C | 33% | 971.2 hPa | 0 mm | - | 494 W/m² | - |
| 1777557904 | 13.33° C | 35% | 971.2 hPa | 0 mm | - | 506 W/m² | - |
* Rain latest hour (hover to see other rain measurements)
** Current wind speed in m/s (hover to see current wind gust speed)